createdAt,value
2023-04-10T00:02:46.702Z,7.00
2023-04-10T00:05:34.515Z,6.90
2023-04-10T00:08:22.642Z,6.80
2023-04-10T00:11:10.071Z,6.80
2023-04-10T00:13:57.957Z,6.90
2023-04-10T00:16:45.478Z,6.80
2023-04-10T00:19:34.408Z,6.80
2023-04-10T00:22:21.801Z,6.80
2023-04-10T00:25:10.118Z,6.90
2023-04-10T00:27:57.707Z,6.80
2023-04-10T00:30:45.006Z,6.80
2023-04-10T00:33:32.585Z,6.80
2023-04-10T00:36:21.653Z,6.70
2023-04-10T00:39:09.734Z,6.70
2023-04-10T00:41:57.748Z,6.70
2023-04-10T00:44:45.118Z,6.60
2023-04-10T00:47:33.340Z,6.60
2023-04-10T00:50:21.315Z,6.50
2023-04-10T00:53:09.977Z,6.50
2023-04-10T00:55:57.990Z,6.50
2023-04-10T00:58:45.410Z,6.40
2023-04-10T01:01:32.838Z,6.50
2023-04-10T01:04:20.389Z,6.50
2023-04-10T01:07:11.376Z,6.50
2023-04-10T01:10:05.107Z,6.40
2023-04-10T01:12:56.097Z,6.30
2023-04-10T01:15:45.767Z,6.30
2023-04-10T01:18:35.634Z,6.20
2023-04-10T01:21:24.296Z,6.20
2023-04-10T01:24:27.410Z,6.30
2023-04-10T01:27:24.908Z,7.10
2023-04-10T01:30:18.376Z,6.20
2023-04-10T01:33:08.500Z,6.20
2023-04-10T01:35:57.582Z,6.20
2023-04-10T01:38:45.516Z,6.20
2023-04-10T01:41:34.136Z,6.20
2023-04-10T01:44:25.810Z,6.20
2023-04-10T01:47:15.464Z,6.20
2023-04-10T01:50:03.259Z,6.20
2023-04-10T01:52:51.916Z,6.80
2023-04-10T01:55:42.905Z,6.30
2023-04-10T01:58:31.942Z,6.30
2023-04-10T02:01:29.085Z,6.30
2023-04-10T02:04:20.194Z,6.20
2023-04-10T02:07:09.683Z,6.20
2023-04-10T02:10:00.491Z,6.20
2023-04-10T02:12:50.754Z,6.10
2023-04-10T02:15:38.286Z,6.10
2023-04-10T02:18:25.759Z,6.10
2023-04-10T02:21:15.889Z,6.10
2023-04-10T02:24:03.403Z,6.00
2023-04-10T02:26:51.882Z,6.00
2023-04-10T02:29:39.268Z,5.90
2023-04-10T02:32:27.513Z,6.00
2023-04-10T02:35:15.578Z,6.10
2023-04-10T02:38:04.147Z,6.10
2023-04-10T02:40:55.593Z,6.90
2023-04-10T02:43:43.183Z,6.20
2023-04-10T02:46:31.489Z,6.10
2023-04-10T02:49:20.073Z,6.10
2023-04-10T02:52:07.491Z,6.00
2023-04-10T02:54:56.132Z,6.00
2023-04-10T02:57:46.670Z,6.00
2023-04-10T03:00:34.401Z,5.90
2023-04-10T03:03:36.241Z,5.90
2023-04-10T03:06:27.405Z,5.90
2023-04-10T03:09:16.542Z,5.90
2023-04-10T03:12:05.447Z,5.80
2023-04-10T03:14:53.189Z,6.10
2023-04-10T03:17:40.793Z,5.70
2023-04-10T03:20:28.662Z,5.80
2023-04-10T03:23:15.978Z,5.70
2023-04-10T03:26:04.837Z,5.80
2023-04-10T03:28:59.074Z,6.00
2023-04-10T03:31:47.321Z,6.20
2023-04-10T03:34:34.939Z,5.90
2023-04-10T03:37:22.023Z,5.90
2023-04-10T03:40:10.506Z,5.90
2023-04-10T03:42:57.904Z,5.90
2023-04-10T03:45:47.835Z,6.00
2023-04-10T03:48:36.511Z,6.00
2023-04-10T03:51:24.918Z,6.00
2023-04-10T03:54:12.419Z,6.60
2023-04-10T03:57:00.356Z,4.20
2023-04-10T03:59:48.757Z,6.20
2023-04-10T04:02:38.204Z,6.90
2023-04-10T04:05:26.273Z,6.00
2023-04-10T04:08:42.789Z,6.00
2023-04-10T04:11:49.209Z,7.00
2023-04-10T04:14:56.417Z,5.90
2023-04-10T04:18:05.969Z,5.80
2023-04-10T04:20:59.209Z,5.80
2023-04-10T04:24:18.796Z,5.80
2023-04-10T04:27:25.249Z,5.70
2023-04-10T04:30:29.271Z,5.50
2023-04-10T04:33:53.332Z,5.60
2023-04-10T04:36:49.373Z,6.20
2023-04-10T04:39:54.063Z,5.70
2023-04-10T04:42:43.982Z,4.70
2023-04-10T04:45:43.124Z,5.60
2023-04-10T04:48:38.274Z,5.60
2023-04-10T04:51:36.141Z,5.70
2023-04-10T04:54:31.464Z,5.70
2023-04-10T04:57:42.050Z,6.10
2023-04-10T05:00:48.492Z,6.30
2023-04-10T05:03:47.965Z,5.80
2023-04-10T05:07:02.999Z,5.90
2023-04-10T05:10:12.337Z,8.90
2023-04-10T05:13:18.560Z,5.80
2023-04-10T05:16:29.072Z,5.70
2023-04-10T05:19:16.640Z,6.00
2023-04-10T05:22:11.465Z,6.10
2023-04-10T05:25:13.196Z,5.90
2023-04-10T05:28:21.196Z,6.10
2023-04-10T05:31:19.252Z,6.10
2023-04-10T05:34:27.102Z,6.30
2023-04-10T05:37:43.415Z,6.30
2023-04-10T05:40:49.655Z,6.30
2023-04-10T05:43:55.890Z,6.40
2023-04-10T05:47:06.293Z,6.50
2023-04-10T05:50:12.631Z,6.60
2023-04-10T05:53:14.725Z,6.10
2023-04-10T05:56:37.572Z,6.80
2023-04-10T05:59:41.200Z,7.00
2023-04-10T06:02:46.854Z,7.10
2023-04-10T06:05:42.593Z,7.10
2023-04-10T06:08:32.116Z,7.40
2023-04-10T06:11:20.143Z,7.50
2023-04-10T06:14:11.575Z,7.60
2023-04-10T06:17:03.593Z,7.70
2023-04-10T06:19:51.345Z,8.30
2023-04-10T06:22:38.733Z,7.90
2023-04-10T06:25:28.416Z,8.00
2023-04-10T06:28:16.187Z,8.10
2023-04-10T06:31:07.826Z,8.40
2023-04-10T06:33:57.386Z,8.30
2023-04-10T06:36:44.830Z,8.70
2023-04-10T06:39:32.506Z,8.50
2023-04-10T06:42:21.441Z,8.50
2023-04-10T06:45:20.023Z,8.60
2023-04-10T06:48:08.217Z,8.60
2023-04-10T06:50:55.916Z,8.90
2023-04-10T06:53:43.113Z,8.80
2023-04-10T06:56:30.607Z,9.00
2023-04-10T06:59:20.247Z,9.60
2023-04-10T07:02:08.093Z,9.20
2023-04-10T07:04:57.007Z,9.30
2023-04-10T07:07:44.729Z,9.50
2023-04-10T07:10:32.333Z,9.60
2023-04-10T07:13:20.451Z,11.80
2023-04-10T07:16:11.264Z,10.30
2023-04-10T07:19:01.363Z,11.20
2023-04-10T07:21:50.530Z,10.10
2023-04-10T07:24:41.302Z,10.40
2023-04-10T07:27:31.852Z,11.40
2023-04-10T07:30:20.408Z,10.70
2023-04-10T07:33:10.170Z,10.90
2023-04-10T07:35:57.863Z,11.10
2023-04-10T07:38:46.406Z,11.20
2023-04-10T07:41:35.733Z,12.70
2023-04-10T07:44:23.022Z,11.40
2023-04-10T07:47:10.477Z,12.70
2023-04-10T07:50:00.092Z,12.00
2023-04-10T07:52:48.014Z,11.80
2023-04-10T07:55:39.295Z,11.70
2023-04-10T07:58:26.616Z,12.10
2023-04-10T08:01:15.810Z,11.90
2023-04-10T08:04:05.993Z,11.80
2023-04-10T08:06:54.954Z,11.80
2023-04-10T08:09:42.786Z,11.80
2023-04-10T08:12:30.079Z,12.00
2023-04-10T08:15:18.677Z,14.10
2023-04-10T08:18:06.244Z,12.00
2023-04-10T08:20:54.648Z,12.10
2023-04-10T08:23:46.485Z,12.30
2023-04-10T08:26:34.156Z,12.30
2023-04-10T08:32:13.321Z,13.10
2023-04-10T08:35:01.156Z,12.90
2023-04-10T08:37:53.623Z,12.90
2023-04-10T08:40:51.677Z,13.00
2023-04-10T08:43:38.911Z,13.20
2023-04-10T08:46:27.579Z,13.30
2023-04-10T08:49:18.767Z,13.40
2023-04-10T08:52:08.577Z,13.60
2023-04-10T08:54:58.193Z,13.60
2023-04-10T08:57:54.342Z,13.60
2023-04-10T09:00:48.022Z,13.90
2023-04-10T09:03:35.869Z,13.60
2023-04-10T09:06:23.986Z,13.60
2023-04-10T09:09:11.231Z,13.80
2023-04-10T09:12:01.494Z,13.90
2023-04-10T09:14:53.559Z,13.90
2023-04-10T09:17:55.743Z,14.00
2023-04-10T09:20:43.636Z,13.60
2023-04-10T09:23:31.088Z,14.80
2023-04-10T09:26:28.071Z,13.90
2023-04-10T09:29:17.034Z,14.10
2023-04-10T09:32:06.467Z,14.60
2023-04-10T09:34:55.040Z,14.40
2023-04-10T09:37:43.392Z,15.00
2023-04-10T09:40:31.887Z,14.80
2023-04-10T09:43:20.972Z,14.80
2023-04-10T09:46:08.456Z,15.20
2023-04-10T09:48:59.480Z,15.40
2023-04-10T09:51:47.642Z,14.50
2023-04-10T09:54:39.116Z,15.40
2023-04-10T09:57:27.475Z,15.30
2023-04-10T10:00:15.628Z,15.10
2023-04-10T10:03:06.427Z,15.20
2023-04-10T10:05:55.557Z,15.10
2023-04-10T10:08:43.061Z,15.50
2023-04-10T10:11:32.552Z,15.70
2023-04-10T10:14:21.629Z,16.40
2023-04-10T10:17:10.600Z,16.20
2023-04-10T10:20:02.246Z,16.30
2023-04-10T10:22:51.676Z,16.30
2023-04-10T10:25:39.549Z,16.40
2023-04-10T10:28:29.450Z,15.70
2023-04-10T10:31:17.969Z,16.70
2023-04-10T10:34:09.323Z,16.80
2023-04-10T10:36:56.980Z,16.80
2023-04-10T10:39:50.776Z,17.00
2023-04-10T10:42:42.122Z,17.40
2023-04-10T10:45:32.579Z,17.20
2023-04-10T10:48:20.708Z,17.40
2023-04-10T10:51:08.625Z,17.60
2023-04-10T10:53:55.932Z,17.80
2023-04-10T10:56:44.732Z,18.10
2023-04-10T10:59:56.750Z,18.30
2023-04-10T11:02:44.329Z,18.40
2023-04-10T11:05:52.898Z,18.60
2023-04-10T11:08:46.074Z,20.10
2023-04-10T11:11:47.913Z,18.70
2023-04-10T11:14:36.981Z,18.60
2023-04-10T11:17:39.074Z,18.20
2023-04-10T11:20:28.728Z,18.10
2023-04-10T11:23:16.676Z,18.10
2023-04-10T11:26:04.633Z,18.20
2023-04-10T11:28:52.452Z,17.80
2023-04-10T11:31:42.129Z,18.40
2023-04-10T11:34:30.996Z,18.50
2023-04-10T11:37:24.204Z,18.40
2023-04-10T11:40:13.008Z,18.40
2023-04-10T11:43:12.865Z,18.30
2023-04-10T11:46:05.106Z,18.30
2023-04-10T11:48:59.846Z,18.20
2023-04-10T11:51:48.796Z,18.40
2023-04-10T11:54:37.840Z,18.80
2023-04-10T11:57:25.409Z,19.00
2023-04-10T12:00:13.412Z,18.80
2023-04-10T12:03:01.716Z,18.90
2023-04-10T12:05:51.456Z,18.70
2023-04-10T12:08:40.290Z,18.60
2023-04-10T12:11:29.000Z,19.60
2023-04-10T12:14:16.388Z,18.60
2023-04-10T12:17:05.146Z,18.70
2023-04-10T12:19:52.962Z,18.90
2023-04-10T12:22:44.250Z,18.90
2023-04-10T12:25:32.355Z,18.90
2023-04-10T12:28:20.947Z,18.40
2023-04-10T12:31:09.441Z,18.10
2023-04-10T12:33:58.104Z,17.80
2023-04-10T12:36:53.124Z,18.00
2023-04-10T12:39:42.774Z,17.40
2023-04-10T12:42:30.676Z,17.40
2023-04-10T12:45:18.906Z,17.30
2023-04-10T12:48:06.744Z,17.20
2023-04-10T12:50:55.297Z,17.20
2023-04-10T12:53:46.495Z,17.20
2023-04-10T12:56:43.333Z,17.30
2023-04-10T12:59:32.864Z,17.30
2023-04-10T13:02:21.428Z,15.80
2023-04-10T13:05:10.489Z,17.20
2023-04-10T13:07:58.491Z,17.20
2023-04-10T13:10:46.457Z,17.30
2023-04-10T13:13:35.592Z,17.30
2023-04-10T13:16:23.339Z,17.20
2023-04-10T13:19:11.042Z,17.10
2023-04-10T13:22:01.277Z,17.20
2023-04-10T13:24:48.915Z,17.10
2023-04-10T13:27:36.786Z,17.10
2023-04-10T13:30:26.454Z,17.40
2023-04-10T13:33:15.000Z,17.00
2023-04-10T13:36:03.144Z,16.80
2023-04-10T13:38:50.853Z,16.60
2023-04-10T13:41:38.687Z,16.80
2023-04-10T13:44:26.219Z,16.80
2023-04-10T13:47:15.810Z,17.20
2023-04-10T13:50:03.767Z,17.30
2023-04-10T13:52:53.017Z,17.70
2023-04-10T13:55:43.847Z,17.30
2023-04-10T13:58:34.290Z,17.50
2023-04-10T14:01:21.739Z,17.30
2023-04-10T14:04:10.828Z,17.30
2023-04-10T14:07:00.585Z,17.30
2023-04-10T14:09:48.757Z,17.20
2023-04-10T14:12:37.973Z,17.60
2023-04-10T14:15:25.263Z,17.10
2023-04-10T14:18:12.852Z,17.10
2023-04-10T14:21:01.745Z,17.20
2023-04-10T14:23:49.639Z,17.40
2023-04-10T14:26:37.535Z,17.30
2023-04-10T14:29:34.921Z,17.30
2023-04-10T14:32:25.274Z,17.10
2023-04-10T14:35:12.374Z,16.90
2023-04-10T14:38:02.352Z,17.10
2023-04-10T14:40:51.072Z,17.00
2023-04-10T14:43:38.752Z,17.00
2023-04-10T14:46:26.651Z,16.90
2023-04-10T14:49:14.671Z,16.90
2023-04-10T14:52:02.393Z,16.80
2023-04-10T14:54:51.383Z,16.90
2023-04-10T14:57:38.973Z,16.80
2023-04-10T15:00:26.552Z,16.60
2023-04-10T15:03:14.620Z,17.00
2023-04-10T15:06:02.088Z,16.50
2023-04-10T15:08:50.219Z,16.40
2023-04-10T15:11:39.078Z,16.10
2023-04-10T15:14:26.668Z,16.10
2023-04-10T15:17:14.462Z,16.00
2023-04-10T15:20:02.200Z,15.70
2023-04-10T15:22:50.817Z,15.30
2023-04-10T15:25:39.408Z,15.20
2023-04-10T15:28:31.422Z,15.00
2023-04-10T15:31:23.144Z,14.80
2023-04-10T15:34:14.189Z,14.60
2023-04-10T15:37:02.283Z,15.00
2023-04-10T15:39:49.770Z,14.70
2023-04-10T15:42:37.601Z,14.70
2023-04-10T15:45:28.032Z,14.60
2023-04-10T15:48:15.863Z,14.50
2023-04-10T15:51:04.946Z,14.30
2023-04-10T15:53:52.586Z,15.00
2023-04-10T15:56:41.254Z,14.70
2023-04-10T15:59:29.380Z,14.30
2023-04-10T16:02:19.220Z,14.20
2023-04-10T16:05:08.136Z,14.10
2023-04-10T16:07:56.105Z,16.60
2023-04-10T16:10:43.773Z,14.10
2023-04-10T16:13:31.782Z,14.00
2023-04-10T16:16:19.808Z,14.10
2023-04-10T16:19:10.049Z,13.90
2023-04-10T16:21:58.404Z,13.70
2023-04-10T16:24:46.327Z,13.70
2023-04-10T16:27:34.196Z,13.60
2023-04-10T16:30:22.046Z,13.10
2023-04-10T16:33:09.351Z,13.10
2023-04-10T16:36:03.078Z,12.50
2023-04-10T16:38:54.783Z,12.50
2023-04-10T16:41:42.298Z,12.00
2023-04-10T16:44:29.700Z,14.30
2023-04-10T16:47:17.757Z,11.70
2023-04-10T16:50:05.450Z,11.50
2023-04-10T16:52:54.857Z,11.40
2023-04-10T16:55:42.971Z,12.50
2023-04-10T16:58:30.296Z,12.40
2023-04-10T17:01:19.019Z,11.30
2023-04-10T17:04:08.113Z,11.50
2023-04-10T17:06:55.886Z,11.10
2023-04-10T17:09:45.630Z,11.00
2023-04-10T17:12:32.988Z,11.30
2023-04-10T17:15:20.560Z,10.90
2023-04-10T17:18:08.406Z,10.90
2023-04-10T17:20:55.810Z,10.90
2023-04-10T17:23:43.874Z,10.90
2023-04-10T17:26:32.678Z,10.80
2023-04-10T17:29:20.853Z,10.90
2023-04-10T17:32:09.703Z,10.80
2023-04-10T17:34:57.712Z,10.80
2023-04-10T17:37:45.565Z,10.80
2023-04-10T17:40:33.424Z,10.70
2023-04-10T17:43:23.101Z,10.70
2023-04-10T17:46:13.853Z,10.70
2023-04-10T17:49:01.762Z,10.60
2023-04-10T17:51:50.310Z,11.00
2023-04-10T17:54:41.294Z,10.60
2023-04-10T17:57:28.876Z,11.10
2023-04-10T18:00:20.606Z,10.50
2023-04-10T18:03:08.404Z,10.50
2023-04-10T18:05:55.712Z,10.40
2023-04-10T18:08:43.166Z,10.60
2023-04-10T18:11:30.447Z,12.50
2023-04-10T18:14:18.391Z,10.40
2023-04-10T18:17:08.190Z,10.40
2023-04-10T18:19:57.590Z,10.30
2023-04-10T18:22:45.025Z,10.30
2023-04-10T18:25:32.654Z,10.20
2023-04-10T18:28:20.576Z,10.20
2023-04-10T18:31:08.508Z,10.10
2023-04-10T18:34:07.116Z,10.20
2023-04-10T18:36:55.792Z,10.10
2023-04-10T18:39:43.862Z,10.20
2023-04-10T18:42:31.022Z,10.20
2023-04-10T18:45:19.839Z,10.60
2023-04-10T18:48:07.198Z,10.10
2023-04-10T18:50:55.965Z,10.80
2023-04-10T18:53:43.543Z,10.20
2023-04-10T18:56:31.397Z,10.10
2023-04-10T18:59:19.136Z,10.20
2023-04-10T19:02:06.527Z,10.10
2023-04-10T19:04:54.777Z,10.50
2023-04-10T19:07:56.643Z,10.00
2023-04-10T19:10:51.513Z,10.70
2023-04-10T19:13:42.604Z,10.00
2023-04-10T19:16:29.722Z,10.00
2023-04-10T19:19:17.719Z,9.90
2023-04-10T19:22:05.677Z,9.90
2023-04-10T19:24:54.629Z,9.90
2023-04-10T19:27:41.748Z,9.90
2023-04-10T19:30:29.657Z,10.00
2023-04-10T19:33:18.208Z,9.90
2023-04-10T19:36:08.438Z,9.80
2023-04-10T19:38:59.116Z,9.80
2023-04-10T19:41:48.180Z,9.80
2023-04-10T19:44:37.074Z,9.70
2023-04-10T19:47:25.179Z,9.70
2023-04-10T19:50:12.345Z,9.60
2023-04-10T19:53:00.295Z,9.60
2023-04-10T19:55:50.134Z,9.60
2023-04-10T19:58:56.327Z,9.60
2023-04-10T20:01:45.769Z,9.60
2023-04-10T20:04:33.509Z,9.60
2023-04-10T20:07:21.559Z,9.50
2023-04-10T20:10:09.772Z,9.50
2023-04-10T20:12:57.613Z,9.50
2023-04-10T20:15:46.952Z,9.50
2023-04-10T20:18:34.092Z,9.50
2023-04-10T20:21:21.845Z,9.50
2023-04-10T20:24:09.673Z,9.50
2023-04-10T20:26:57.883Z,9.50
2023-04-10T20:29:45.290Z,6.70
2023-04-10T20:32:34.111Z,9.50
2023-04-10T20:35:23.745Z,9.50
2023-04-10T20:38:14.006Z,9.40
2023-04-10T20:41:03.914Z,9.40
2023-04-10T20:43:51.074Z,9.30
2023-04-10T20:46:38.450Z,9.20
2023-04-10T20:49:27.976Z,9.30
2023-04-10T20:52:15.159Z,9.10
2023-04-10T20:55:03.665Z,9.10
2023-04-10T20:57:51.819Z,9.00
2023-04-10T21:00:41.208Z,9.00
2023-04-10T21:03:28.439Z,9.10
2023-04-10T21:06:17.003Z,9.10
2023-04-10T21:09:04.294Z,9.20
2023-04-10T21:11:51.871Z,9.20
2023-04-10T21:14:39.625Z,9.30
2023-04-10T21:17:31.265Z,9.30
2023-04-10T21:20:19.617Z,9.30
2023-04-10T21:23:09.302Z,9.30
2023-04-10T21:25:56.525Z,9.40
2023-04-10T21:28:44.017Z,9.40
2023-04-10T21:31:36.006Z,9.30
2023-04-10T21:34:23.476Z,9.30
2023-04-10T21:37:10.997Z,9.40
2023-04-10T21:40:03.955Z,9.40
2023-04-10T21:42:54.248Z,9.40
2023-04-10T21:45:42.605Z,9.40
2023-04-10T21:48:33.207Z,10.00
2023-04-10T21:51:22.881Z,9.40
2023-04-10T21:54:10.711Z,9.30
2023-04-10T21:57:00.124Z,9.30
2023-04-10T21:59:47.974Z,9.30
2023-04-10T22:02:35.806Z,11.20
2023-04-10T22:05:24.492Z,9.30
2023-04-10T22:08:12.669Z,9.40
2023-04-10T22:11:00.955Z,9.40
2023-04-10T22:13:50.771Z,9.50
2023-04-10T22:16:38.544Z,9.40
2023-04-10T22:19:26.390Z,9.40
2023-04-10T22:22:14.091Z,9.40
2023-04-10T22:25:03.178Z,9.20
2023-04-10T22:27:50.623Z,9.30
2023-04-10T22:30:39.724Z,9.40
2023-04-10T22:33:27.279Z,9.40
2023-04-10T22:36:15.477Z,9.30
2023-04-10T22:39:05.479Z,9.20
2023-04-10T22:41:53.095Z,9.20
2023-04-10T22:44:41.025Z,9.50
2023-04-10T22:47:30.221Z,9.10
2023-04-10T22:50:18.472Z,9.00
2023-04-10T22:53:06.341Z,9.00
2023-04-10T22:55:54.418Z,9.00
2023-04-10T22:58:42.334Z,8.80
2023-04-10T23:01:30.669Z,8.80
2023-04-10T23:04:20.585Z,8.80
2023-04-10T23:07:08.734Z,8.70
2023-04-10T23:09:56.019Z,8.70
2023-04-10T23:12:44.045Z,8.60
2023-04-10T23:15:31.606Z,10.40
2023-04-10T23:18:19.789Z,9.00
2023-04-10T23:21:09.407Z,8.70
2023-04-10T23:23:57.563Z,8.70
2023-04-10T23:26:45.784Z,8.60
2023-04-10T23:29:33.698Z,8.40
2023-04-10T23:32:21.549Z,8.60
2023-04-10T23:35:09.712Z,8.20
2023-04-10T23:38:00.985Z,10.90
2023-04-10T23:40:48.618Z,8.50
2023-04-10T23:43:38.218Z,8.40
2023-04-10T23:46:25.479Z,8.30
2023-04-10T23:49:12.924Z,8.50
2023-04-10T23:52:01.126Z,8.60
2023-04-10T23:54:50.394Z,8.80
2023-04-10T23:57:38.387Z,8.80
